sensor_id;sensor_type;location;lat;lon;timestamp;temperature;humidity
44166;DHT22;30476;53.468;9.826;2023-02-15T00:01:38;3.90;99.90
44166;DHT22;30476;53.468;9.826;2023-02-15T00:04:05;3.80;99.90
44166;DHT22;30476;53.468;9.826;2023-02-15T00:06:32;3.80;99.90
44166;DHT22;30476;53.468;9.826;2023-02-15T00:08:57;3.80;99.90
44166;DHT22;30476;53.468;9.826;2023-02-15T00:11:23;3.70;99.90
44166;DHT22;30476;53.468;9.826;2023-02-15T00:14:15;3.70;99.90
44166;DHT22;30476;53.468;9.826;2023-02-15T00:16:43;3.70;99.90
44166;DHT22;30476;53.468;9.826;2023-02-15T00:19:11;3.60;99.90
44166;DHT22;30476;53.468;9.826;2023-02-15T00:21:38;3.50;99.90
44166;DHT22;30476;53.468;9.826;2023-02-15T00:24:06;3.50;99.90
44166;DHT22;30476;53.468;9.826;2023-02-15T00:26:33;3.50;99.90
44166;DHT22;30476;53.468;9.826;2023-02-15T00:28:59;3.50;99.90
44166;DHT22;30476;53.468;9.826;2023-02-15T00:31:27;3.50;99.90
44166;DHT22;30476;53.468;9.826;2023-02-15T00:33:53;3.50;99.90
44166;DHT22;30476;53.468;9.826;2023-02-15T00:36:18;3.50;99.90
44166;DHT22;30476;53.468;9.826;2023-02-15T00:38:44;3.50;99.90
44166;DHT22;30476;53.468;9.826;2023-02-15T00:41:10;3.50;99.90
44166;DHT22;30476;53.468;9.826;2023-02-15T00:43:36;3.40;99.90
44166;DHT22;30476;53.468;9.826;2023-02-15T00:46:04;3.40;99.90
44166;DHT22;30476;53.468;9.826;2023-02-15T00:48:31;3.40;99.90
44166;DHT22;30476;53.468;9.826;2023-02-15T00:50:59;3.50;99.90
44166;DHT22;30476;53.468;9.826;2023-02-15T00:53:26;3.40;99.90
44166;DHT22;30476;53.468;9.826;2023-02-15T00:55:52;3.40;99.90
44166;DHT22;30476;53.468;9.826;2023-02-15T00:58:18;3.40;99.90
44166;DHT22;30476;53.468;9.826;2023-02-15T01:00:46;3.40;99.90
44166;DHT22;30476;53.468;9.826;2023-02-15T01:03:13;3.40;99.90
44166;DHT22;30476;53.468;9.826;2023-02-15T01:05:39;3.40;99.90
44166;DHT22;30476;53.468;9.826;2023-02-15T01:08:05;3.30;99.90
44166;DHT22;30476;53.468;9.826;2023-02-15T01:10:32;3.40;99.90
44166;DHT22;30476;53.468;9.826;2023-02-15T01:12:58;3.30;99.90
44166;DHT22;30476;53.468;9.826;2023-02-15T01:15:24;3.40;99.90
44166;DHT22;30476;53.468;9.826;2023-02-15T01:17:50;3.30;99.90
44166;DHT22;30476;53.468;9.826;2023-02-15T01:20:21;3.40;99.90
44166;DHT22;30476;53.468;9.826;2023-02-15T01:22:48;3.30;99.90
44166;DHT22;30476;53.468;9.826;2023-02-15T01:25:19;3.30;99.90
44166;DHT22;30476;53.468;9.826;2023-02-15T01:27:46;3.30;99.90
44166;DHT22;30476;53.468;9.826;2023-02-15T01:30:12;3.30;99.90
44166;DHT22;30476;53.468;9.826;2023-02-15T01:32:39;3.40;99.90
44166;DHT22;30476;53.468;9.826;2023-02-15T01:35:05;3.40;99.90
44166;DHT22;30476;53.468;9.826;2023-02-15T01:37:31;3.40;99.90
44166;DHT22;30476;53.468;9.826;2023-02-15T01:39:57;3.40;99.90
44166;DHT22;30476;53.468;9.826;2023-02-15T01:42:24;3.40;99.90
44166;DHT22;30476;53.468;9.826;2023-02-15T01:44:53;3.50;99.90
44166;DHT22;30476;53.468;9.826;2023-02-15T01:47:24;3.40;99.90
44166;DHT22;30476;53.468;9.826;2023-02-15T01:50:16;3.50;99.90
44166;DHT22;30476;53.468;9.826;2023-02-15T01:55:37;3.40;99.90
44166;DHT22;30476;53.468;9.826;2023-02-15T01:58:05;3.40;99.90
44166;DHT22;30476;53.468;9.826;2023-02-15T02:00:32;3.40;99.90
44166;DHT22;30476;53.468;9.826;2023-02-15T02:03:00;3.40;99.90
44166;DHT22;30476;53.468;9.826;2023-02-15T02:05:27;3.50;99.90
44166;DHT22;30476;53.468;9.826;2023-02-15T02:07:56;3.50;99.90
44166;DHT22;30476;53.468;9.826;2023-02-15T02:10:24;3.50;99.90
44166;DHT22;30476;53.468;9.826;2023-02-15T02:12:54;3.50;99.90
44166;DHT22;30476;53.468;9.826;2023-02-15T02:15:27;3.50;99.90
44166;DHT22;30476;53.468;9.826;2023-02-15T02:18:17;3.50;99.90
44166;DHT22;30476;53.468;9.826;2023-02-15T02:29:30;3.40;99.90
44166;DHT22;30476;53.468;9.826;2023-02-15T02:34:56;3.30;99.90
44166;DHT22;30476;53.468;9.826;2023-02-15T02:37:37;3.30;99.90
44166;DHT22;30476;53.468;9.826;2023-02-15T02:40:22;3.30;99.90
44166;DHT22;30476;53.468;9.826;2023-02-15T02:43:01;3.30;99.90
44166;DHT22;30476;53.468;9.826;2023-02-15T02:45:40;3.20;99.90
44166;DHT22;30476;53.468;9.826;2023-02-15T02:48:13;3.20;99.90
44166;DHT22;30476;53.468;9.826;2023-02-15T02:50:40;3.20;99.90
44166;DHT22;30476;53.468;9.826;2023-02-15T02:53:08;3.20;99.90
44166;DHT22;30476;53.468;9.826;2023-02-15T02:58:39;3.10;99.90
44166;DHT22;30476;53.468;9.826;2023-02-15T03:01:15;3.10;99.90
44166;DHT22;30476;53.468;9.826;2023-02-15T03:03:47;3.10;99.90
44166;DHT22;30476;53.468;9.826;2023-02-15T03:06:40;3.00;99.90
44166;DHT22;30476;53.468;9.826;2023-02-15T03:09:15;3.00;99.90
44166;DHT22;30476;53.468;9.826;2023-02-15T03:11:44;2.90;99.90
44166;DHT22;30476;53.468;9.826;2023-02-15T03:14:11;2.90;99.90
44166;DHT22;30476;53.468;9.826;2023-02-15T03:16:39;2.90;99.90
44166;DHT22;30476;53.468;9.826;2023-02-15T03:19:10;2.90;99.90
44166;DHT22;30476;53.468;9.826;2023-02-15T03:22:08;2.90;99.90
44166;DHT22;30476;53.468;9.826;2023-02-15T03:24:45;2.80;99.90
44166;DHT22;30476;53.468;9.826;2023-02-15T03:27:18;2.90;99.90
44166;DHT22;30476;53.468;9.826;2023-02-15T03:30:05;2.80;99.90
44166;DHT22;30476;53.468;9.826;2023-02-15T03:32:33;2.80;99.90
44166;DHT22;30476;53.468;9.826;2023-02-15T03:35:01;2.80;99.90
44166;DHT22;30476;53.468;9.826;2023-02-15T03:37:32;2.80;99.90
44166;DHT22;30476;53.468;9.826;2023-02-15T03:40:08;2.80;99.90
44166;DHT22;30476;53.468;9.826;2023-02-15T03:43:00;2.80;99.90
44166;DHT22;30476;53.468;9.826;2023-02-15T03:45:31;2.80;99.90
44166;DHT22;30476;53.468;9.826;2023-02-15T03:48:00;2.80;99.90
44166;DHT22;30476;53.468;9.826;2023-02-15T03:50:29;2.80;99.90
44166;DHT22;30476;53.468;9.826;2023-02-15T03:53:17;2.80;99.90
44166;DHT22;30476;53.468;9.826;2023-02-15T03:55:55;2.80;99.90
44166;DHT22;30476;53.468;9.826;2023-02-15T03:58:21;2.80;99.90
44166;DHT22;30476;53.468;9.826;2023-02-15T04:01:16;2.80;99.90
44166;DHT22;30476;53.468;9.826;2023-02-15T04:04:14;2.80;99.90
44166;DHT22;30476;53.468;9.826;2023-02-15T04:06:42;2.80;99.90
44166;DHT22;30476;53.468;9.826;2023-02-15T04:09:08;2.70;99.90
44166;DHT22;30476;53.468;9.826;2023-02-15T04:11:53;2.70;99.90
44166;DHT22;30476;53.468;9.826;2023-02-15T04:14:18;2.70;99.90
44166;DHT22;30476;53.468;9.826;2023-02-15T04:17:06;2.70;99.90
44166;DHT22;30476;53.468;9.826;2023-02-15T04:19:32;2.60;99.90
44166;DHT22;30476;53.468;9.826;2023-02-15T04:22:17;2.60;99.90
44166;DHT22;30476;53.468;9.826;2023-02-15T04:25:01;2.60;99.90
44166;DHT22;30476;53.468;9.826;2023-02-15T04:27:41;2.50;99.90
44166;DHT22;30476;53.468;9.826;2023-02-15T04:30:08;2.50;99.90
44166;DHT22;30476;53.468;9.826;2023-02-15T04:32:34;2.40;99.90
44166;DHT22;30476;53.468;9.826;2023-02-15T04:35:00;2.50;99.90
44166;DHT22;30476;53.468;9.826;2023-02-15T04:37:26;2.50;99.90
44166;DHT22;30476;53.468;9.826;2023-02-15T04:39:52;2.50;99.90
44166;DHT22;30476;53.468;9.826;2023-02-15T04:42:18;2.40;99.90
44166;DHT22;30476;53.468;9.826;2023-02-15T04:44:43;2.40;99.90
44166;DHT22;30476;53.468;9.826;2023-02-15T04:47:09;2.40;99.90
44166;DHT22;30476;53.468;9.826;2023-02-15T04:49:35;2.40;99.90
44166;DHT22;30476;53.468;9.826;2023-02-15T04:52:01;2.40;99.90
44166;DHT22;30476;53.468;9.826;2023-02-15T04:54:27;2.30;99.90
44166;DHT22;30476;53.468;9.826;2023-02-15T04:56:53;2.30;99.90
44166;DHT22;30476;53.468;9.826;2023-02-15T04:59:18;2.30;99.90
44166;DHT22;30476;53.468;9.826;2023-02-15T05:01:44;2.30;99.90
44166;DHT22;30476;53.468;9.826;2023-02-15T05:04:10;2.30;99.90
44166;DHT22;30476;53.468;9.826;2023-02-15T05:06:36;2.30;99.90
44166;DHT22;30476;53.468;9.826;2023-02-15T05:09:02;2.20;99.90
44166;DHT22;30476;53.468;9.826;2023-02-15T05:11:28;2.20;99.90
44166;DHT22;30476;53.468;9.826;2023-02-15T05:13:53;2.10;99.90
44166;DHT22;30476;53.468;9.826;2023-02-15T05:16:19;2.20;99.90
44166;DHT22;30476;53.468;9.826;2023-02-15T05:18:45;2.10;99.90
44166;DHT22;30476;53.468;9.826;2023-02-15T05:21:11;2.20;99.90
44166;DHT22;30476;53.468;9.826;2023-02-15T05:23:39;2.10;99.90
44166;DHT22;30476;53.468;9.826;2023-02-15T05:26:05;2.10;99.90
44166;DHT22;30476;53.468;9.826;2023-02-15T05:28:49;2.10;99.90
44166;DHT22;30476;53.468;9.826;2023-02-15T05:31:17;2.20;99.90
44166;DHT22;30476;53.468;9.826;2023-02-15T05:33:44;2.10;99.90
44166;DHT22;30476;53.468;9.826;2023-02-15T05:36:10;2.20;99.90
44166;DHT22;30476;53.468;9.826;2023-02-15T05:38:37;2.20;99.90
44166;DHT22;30476;53.468;9.826;2023-02-15T05:41:04;2.20;99.90
44166;DHT22;30476;53.468;9.826;2023-02-15T05:43:31;2.20;99.90
44166;DHT22;30476;53.468;9.826;2023-02-15T05:45:57;2.20;99.90
44166;DHT22;30476;53.468;9.826;2023-02-15T05:48:25;2.20;99.90
44166;DHT22;30476;53.468;9.826;2023-02-15T05:51:09;2.20;99.90
44166;DHT22;30476;53.468;9.826;2023-02-15T05:53:37;2.30;99.90
44166;DHT22;30476;53.468;9.826;2023-02-15T05:56:04;2.30;99.90
44166;DHT22;30476;53.468;9.826;2023-02-15T05:58:32;2.20;99.90
44166;DHT22;30476;53.468;9.826;2023-02-15T06:00:58;2.20;99.90
44166;DHT22;30476;53.468;9.826;2023-02-15T06:03:24;2.20;99.90
44166;DHT22;30476;53.468;9.826;2023-02-15T06:05:52;2.10;99.90
44166;DHT22;30476;53.468;9.826;2023-02-15T06:08:18;2.10;99.90
44166;DHT22;30476;53.468;9.826;2023-02-15T06:10:47;2.10;99.90
44166;DHT22;30476;53.468;9.826;2023-02-15T06:13:13;2.10;99.90
44166;DHT22;30476;53.468;9.826;2023-02-15T06:15:39;2.00;99.90
44166;DHT22;30476;53.468;9.826;2023-02-15T06:18:05;2.00;99.90
44166;DHT22;30476;53.468;9.826;2023-02-15T06:20:30;1.90;99.90
44166;DHT22;30476;53.468;9.826;2023-02-15T06:22:56;2.00;99.90
44166;DHT22;30476;53.468;9.826;2023-02-15T06:25:22;1.90;99.90
44166;DHT22;30476;53.468;9.826;2023-02-15T06:27:48;1.80;99.90
44166;DHT22;30476;53.468;9.826;2023-02-15T06:30:14;1.90;99.90
44166;DHT22;30476;53.468;9.826;2023-02-15T06:32:40;1.80;99.90
44166;DHT22;30476;53.468;9.826;2023-02-15T06:35:06;1.80;99.90
44166;DHT22;30476;53.468;9.826;2023-02-15T06:37:32;1.70;99.90
44166;DHT22;30476;53.468;9.826;2023-02-15T06:39:58;1.80;99.90
44166;DHT22;30476;53.468;9.826;2023-02-15T06:42:24;1.80;99.90
44166;DHT22;30476;53.468;9.826;2023-02-15T06:44:50;1.80;99.90
44166;DHT22;30476;53.468;9.826;2023-02-15T06:47:16;1.80;99.90
44166;DHT22;30476;53.468;9.826;2023-02-15T06:49:42;1.80;99.90
44166;DHT22;30476;53.468;9.826;2023-02-15T06:52:08;1.80;99.90
44166;DHT22;30476;53.468;9.826;2023-02-15T06:54:34;1.90;99.90
44166;DHT22;30476;53.468;9.826;2023-02-15T06:57:00;1.90;99.90
44166;DHT22;30476;53.468;9.826;2023-02-15T06:59:26;1.90;99.90
44166;DHT22;30476;53.468;9.826;2023-02-15T07:01:51;2.00;99.90
44166;DHT22;30476;53.468;9.826;2023-02-15T07:04:17;1.90;99.90
44166;DHT22;30476;53.468;9.826;2023-02-15T07:06:43;2.00;99.90
44166;DHT22;30476;53.468;9.826;2023-02-15T07:09:09;1.90;99.90
44166;DHT22;30476;53.468;9.826;2023-02-15T07:11:35;1.90;99.90
44166;DHT22;30476;53.468;9.826;2023-02-15T07:14:20;1.90;99.90
44166;DHT22;30476;53.468;9.826;2023-02-15T07:16:45;1.90;99.90
44166;DHT22;30476;53.468;9.826;2023-02-15T07:19:11;1.80;99.90
44166;DHT22;30476;53.468;9.826;2023-02-15T07:21:37;1.80;99.90
44166;DHT22;30476;53.468;9.826;2023-02-15T07:24:03;1.90;99.90
44166;DHT22;30476;53.468;9.826;2023-02-15T07:26:31;1.90;99.90
44166;DHT22;30476;53.468;9.826;2023-02-15T07:28:57;1.90;99.90
44166;DHT22;30476;53.468;9.826;2023-02-15T07:31:23;1.90;99.90
44166;DHT22;30476;53.468;9.826;2023-02-15T07:33:49;1.90;99.90
44166;DHT22;30476;53.468;9.826;2023-02-15T07:36:15;2.00;99.90
44166;DHT22;30476;53.468;9.826;2023-02-15T07:38:41;2.10;99.90
44166;DHT22;30476;53.468;9.826;2023-02-15T07:41:09;2.10;99.90
44166;DHT22;30476;53.468;9.826;2023-02-15T07:43:38;2.10;99.90
44166;DHT22;30476;53.468;9.826;2023-02-15T07:46:08;2.10;99.90
44166;DHT22;30476;53.468;9.826;2023-02-15T07:48:35;2.10;99.90
44166;DHT22;30476;53.468;9.826;2023-02-15T07:51:03;2.10;99.90
44166;DHT22;30476;53.468;9.826;2023-02-15T07:53:30;2.10;99.90
44166;DHT22;30476;53.468;9.826;2023-02-15T07:56:08;2.20;99.90
44166;DHT22;30476;53.468;9.826;2023-02-15T07:58:34;2.20;99.90
44166;DHT22;30476;53.468;9.826;2023-02-15T08:01:31;2.30;99.90
44166;DHT22;30476;53.468;9.826;2023-02-15T08:03:57;2.30;99.90
44166;DHT22;30476;53.468;9.826;2023-02-15T08:06:25;2.30;99.90
44166;DHT22;30476;53.468;9.826;2023-02-15T08:08:51;2.40;99.90
44166;DHT22;30476;53.468;9.826;2023-02-15T08:11:24;2.50;99.90
44166;DHT22;30476;53.468;9.826;2023-02-15T08:14:13;2.50;99.90
44166;DHT22;30476;53.468;9.826;2023-02-15T08:16:50;2.50;99.90
44166;DHT22;30476;53.468;9.826;2023-02-15T08:19:20;2.50;99.90
44166;DHT22;30476;53.468;9.826;2023-02-15T08:21:49;2.50;99.90
44166;DHT22;30476;53.468;9.826;2023-02-15T08:24:18;2.50;99.90
44166;DHT22;30476;53.468;9.826;2023-02-15T08:26:45;2.50;99.90
44166;DHT22;30476;53.468;9.826;2023-02-15T08:29:16;2.60;99.90
44166;DHT22;30476;53.468;9.826;2023-02-15T08:31:43;2.60;99.90
44166;DHT22;30476;53.468;9.826;2023-02-15T08:34:11;2.70;99.90
44166;DHT22;30476;53.468;9.826;2023-02-15T08:36:38;2.70;99.90
44166;DHT22;30476;53.468;9.826;2023-02-15T08:39:05;2.70;99.90
44166;DHT22;30476;53.468;9.826;2023-02-15T08:41:35;2.70;99.90
44166;DHT22;30476;53.468;9.826;2023-02-15T08:44:04;2.70;99.90
44166;DHT22;30476;53.468;9.826;2023-02-15T08:46:33;2.80;99.90
44166;DHT22;30476;53.468;9.826;2023-02-15T08:48:59;2.70;99.90
44166;DHT22;30476;53.468;9.826;2023-02-15T08:51:28;2.80;99.90
44166;DHT22;30476;53.468;9.826;2023-02-15T08:53:56;2.80;99.90
44166;DHT22;30476;53.468;9.826;2023-02-15T08:56:27;2.90;99.90
44166;DHT22;30476;53.468;9.826;2023-02-15T08:58:54;2.90;99.90
44166;DHT22;30476;53.468;9.826;2023-02-15T09:01:22;2.90;99.90
44166;DHT22;30476;53.468;9.826;2023-02-15T09:03:51;3.00;99.90
44166;DHT22;30476;53.468;9.826;2023-02-15T09:06:20;3.10;99.90
44166;DHT22;30476;53.468;9.826;2023-02-15T09:08:48;3.10;99.90
44166;DHT22;30476;53.468;9.826;2023-02-15T09:11:16;3.20;99.90
44166;DHT22;30476;53.468;9.826;2023-02-15T09:13:56;3.20;99.90
44166;DHT22;30476;53.468;9.826;2023-02-15T09:16:23;3.30;99.90
44166;DHT22;30476;53.468;9.826;2023-02-15T09:18:50;3.40;99.90
44166;DHT22;30476;53.468;9.826;2023-02-15T09:21:19;3.40;99.90
44166;DHT22;30476;53.468;9.826;2023-02-15T09:23:47;3.60;99.90
44166;DHT22;30476;53.468;9.826;2023-02-15T09:26:15;3.60;99.90
44166;DHT22;30476;53.468;9.826;2023-02-15T09:28:42;3.60;99.90
44166;DHT22;30476;53.468;9.826;2023-02-15T09:31:16;3.70;99.90
44166;DHT22;30476;53.468;9.826;2023-02-15T09:33:44;3.80;99.90
44166;DHT22;30476;53.468;9.826;2023-02-15T09:36:21;3.90;99.90
44166;DHT22;30476;53.468;9.826;2023-02-15T09:38:56;4.00;99.90
44166;DHT22;30476;53.468;9.826;2023-02-15T09:41:46;4.00;99.90
44166;DHT22;30476;53.468;9.826;2023-02-15T09:44:31;4.10;99.90
44166;DHT22;30476;53.468;9.826;2023-02-15T09:47:25;4.20;99.90
44166;DHT22;30476;53.468;9.826;2023-02-15T09:52:54;4.40;99.90
44166;DHT22;30476;53.468;9.826;2023-02-15T10:06:31;4.70;99.90
44166;DHT22;30476;53.468;9.826;2023-02-15T10:09:39;4.80;99.90
44166;DHT22;30476;53.468;9.826;2023-02-15T10:12:25;4.90;99.90
44166;DHT22;30476;53.468;9.826;2023-02-15T10:17:57;5.00;99.90
44166;DHT22;30476;53.468;9.826;2023-02-15T10:20:39;5.10;99.90
44166;DHT22;30476;53.468;9.826;2023-02-15T10:26:03;5.30;99.90
44166;DHT22;30476;53.468;9.826;2023-02-15T10:31:41;5.50;99.90
44166;DHT22;30476;53.468;9.826;2023-02-15T10:34:23;5.60;99.90
44166;DHT22;30476;53.468;9.826;2023-02-15T10:48:16;6.20;99.90
44166;DHT22;30476;53.468;9.826;2023-02-15T10:50:57;6.40;99.90
44166;DHT22;30476;53.468;9.826;2023-02-15T10:53:59;6.50;99.90
44166;DHT22;30476;53.468;9.826;2023-02-15T10:56:38;6.60;99.90
44166;DHT22;30476;53.468;9.826;2023-02-15T10:59:28;6.70;99.90
44166;DHT22;30476;53.468;9.826;2023-02-15T11:02:20;6.80;99.90
44166;DHT22;30476;53.468;9.826;2023-02-15T11:07:48;7.20;99.90
44166;DHT22;30476;53.468;9.826;2023-02-15T11:12:58;7.70;99.90
44166;DHT22;30476;53.468;9.826;2023-02-15T11:15:36;7.90;99.90
44166;DHT22;30476;53.468;9.826;2023-02-15T11:21:24;8.40;99.90
44166;DHT22;30476;53.468;9.826;2023-02-15T11:23:48;8.60;99.90
44166;DHT22;30476;53.468;9.826;2023-02-15T11:26:43;8.90;99.90
44166;DHT22;30476;53.468;9.826;2023-02-15T11:31:56;9.40;99.90
44166;DHT22;30476;53.468;9.826;2023-02-15T11:34:38;9.70;99.90
44166;DHT22;30476;53.468;9.826;2023-02-15T11:37:08;9.90;99.90
44166;DHT22;30476;53.468;9.826;2023-02-15T11:39:35;10.20;99.90
44166;DHT22;30476;53.468;9.826;2023-02-15T11:42:06;10.40;99.90
44166;DHT22;30476;53.468;9.826;2023-02-15T11:44:39;10.50;99.90
44166;DHT22;30476;53.468;9.826;2023-02-15T11:47:11;10.60;99.90
44166;DHT22;30476;53.468;9.826;2023-02-15T11:49:38;10.80;99.90
44166;DHT22;30476;53.468;9.826;2023-02-15T11:52:11;10.90;99.90
44166;DHT22;30476;53.468;9.826;2023-02-15T11:54:41;11.00;99.90
44166;DHT22;30476;53.468;9.826;2023-02-15T11:57:38;11.20;99.90
44166;DHT22;30476;53.468;9.826;2023-02-15T12:00:17;11.50;99.90
44166;DHT22;30476;53.468;9.826;2023-02-15T12:02:52;11.60;99.90
44166;DHT22;30476;53.468;9.826;2023-02-15T12:05:21;11.80;99.90
44166;DHT22;30476;53.468;9.826;2023-02-15T12:08:02;12.00;99.90
44166;DHT22;30476;53.468;9.826;2023-02-15T12:13:21;12.30;99.90
44166;DHT22;30476;53.468;9.826;2023-02-15T12:15:50;12.40;99.90
44166;DHT22;30476;53.468;9.826;2023-02-15T12:20:48;12.60;99.90
44166;DHT22;30476;53.468;9.826;2023-02-15T12:23:15;12.70;99.90
44166;DHT22;30476;53.468;9.826;2023-02-15T12:25:51;12.80;99.90
44166;DHT22;30476;53.468;9.826;2023-02-15T12:28:42;13.00;99.90
44166;DHT22;30476;53.468;9.826;2023-02-15T12:31:22;13.10;99.90
44166;DHT22;30476;53.468;9.826;2023-02-15T12:33:51;13.20;99.90
44166;DHT22;30476;53.468;9.826;2023-02-15T12:36:22;13.40;99.90
44166;DHT22;30476;53.468;9.826;2023-02-15T12:39:03;13.60;99.90
44166;DHT22;30476;53.468;9.826;2023-02-15T12:41:30;13.70;99.90
44166;DHT22;30476;53.468;9.826;2023-02-15T12:44:15;13.80;99.90
44166;DHT22;30476;53.468;9.826;2023-02-15T12:46:41;13.90;99.90
44166;DHT22;30476;53.468;9.826;2023-02-15T12:51:55;14.00;99.90
44166;DHT22;30476;53.468;9.826;2023-02-15T12:54:32;13.90;99.90
44166;DHT22;30476;53.468;9.826;2023-02-15T12:57:20;13.90;99.90
44166;DHT22;30476;53.468;9.826;2023-02-15T13:04:56;14.00;99.90
44166;DHT22;30476;53.468;9.826;2023-02-15T13:07:25;14.10;99.90
44166;DHT22;30476;53.468;9.826;2023-02-15T13:09:55;14.10;99.90
44166;DHT22;30476;53.468;9.826;2023-02-15T13:12:23;14.20;99.90
44166;DHT22;30476;53.468;9.826;2023-02-15T13:14:53;14.20;99.90
44166;DHT22;30476;53.468;9.826;2023-02-15T13:17:29;14.30;99.90
44166;DHT22;30476;53.468;9.826;2023-02-15T13:20:13;14.40;99.90
44166;DHT22;30476;53.468;9.826;2023-02-15T13:22:44;14.40;99.90
44166;DHT22;30476;53.468;9.826;2023-02-15T13:25:18;14.40;99.90
44166;DHT22;30476;53.468;9.826;2023-02-15T13:27:46;14.50;99.90
44166;DHT22;30476;53.468;9.826;2023-02-15T13:30:28;14.60;99.90
44166;DHT22;30476;53.468;9.826;2023-02-15T13:33:12;14.60;99.90
44166;DHT22;30476;53.468;9.826;2023-02-15T13:35:50;14.70;99.90
44166;DHT22;30476;53.468;9.826;2023-02-15T13:41:26;14.70;99.90
44166;DHT22;30476;53.468;9.826;2023-02-15T13:47:11;15.00;99.90
44166;DHT22;30476;53.468;9.826;2023-02-15T13:52:33;15.00;99.90
44166;DHT22;30476;53.468;9.826;2023-02-15T13:55:31;15.00;99.90
44166;DHT22;30476;53.468;9.826;2023-02-15T13:58:15;14.90;99.90
44166;DHT22;30476;53.468;9.826;2023-02-15T14:01:15;14.80;99.90
44166;DHT22;30476;53.468;9.826;2023-02-15T14:04:01;14.80;99.90
44166;DHT22;30476;53.468;9.826;2023-02-15T14:06:58;14.80;99.90
44166;DHT22;30476;53.468;9.826;2023-02-15T14:15:37;14.80;99.90
44166;DHT22;30476;53.468;9.826;2023-02-15T14:18:25;14.80;99.90
44166;DHT22;30476;53.468;9.826;2023-02-15T14:26:42;14.60;99.90
44166;DHT22;30476;53.468;9.826;2023-02-15T14:32:13;14.50;99.90
44166;DHT22;30476;53.468;9.826;2023-02-15T14:35:00;14.50;99.90
44166;DHT22;30476;53.468;9.826;2023-02-15T14:37:47;14.30;99.90
44166;DHT22;30476;53.468;9.826;2023-02-15T14:43:46;14.20;99.90
44166;DHT22;30476;53.468;9.826;2023-02-15T14:46:42;14.10;99.90
44166;DHT22;30476;53.468;9.826;2023-02-15T14:49:21;14.00;99.90
44166;DHT22;30476;53.468;9.826;2023-02-15T14:56:46;13.60;99.90
44166;DHT22;30476;53.468;9.826;2023-02-15T14:59:15;13.50;99.90
44166;DHT22;30476;53.468;9.826;2023-02-15T15:01:42;13.50;99.90
44166;DHT22;30476;53.468;9.826;2023-02-15T15:04:43;13.50;99.90
44166;DHT22;30476;53.468;9.826;2023-02-15T15:07:21;13.50;99.90
44166;DHT22;30476;53.468;9.826;2023-02-15T15:10:05;13.30;99.90
44166;DHT22;30476;53.468;9.826;2023-02-15T15:15:13;13.20;99.90
44166;DHT22;30476;53.468;9.826;2023-02-15T15:22:40;13.00;99.90
44166;DHT22;30476;53.468;9.826;2023-02-15T15:27:49;13.00;99.90
44166;DHT22;30476;53.468;9.826;2023-02-15T15:40:59;12.70;99.90
44166;DHT22;30476;53.468;9.826;2023-02-15T15:48:52;12.40;99.90
44166;DHT22;30476;53.468;9.826;2023-02-15T15:51:20;12.30;99.90
44166;DHT22;30476;53.468;9.826;2023-02-15T15:53:49;12.20;99.90
44166;DHT22;30476;53.468;9.826;2023-02-15T15:56:27;12.10;99.90
44166;DHT22;30476;53.468;9.826;2023-02-15T15:58:58;12.00;99.90
44166;DHT22;30476;53.468;9.826;2023-02-15T16:01:38;12.00;99.90
44166;DHT22;30476;53.468;9.826;2023-02-15T16:04:05;11.80;99.90
44166;DHT22;30476;53.468;9.826;2023-02-15T16:09:13;11.70;99.90
44166;DHT22;30476;53.468;9.826;2023-02-15T16:11:41;11.60;99.90
44166;DHT22;30476;53.468;9.826;2023-02-15T16:14:15;11.40;99.90
44166;DHT22;30476;53.468;9.826;2023-02-15T16:16:48;11.30;99.90
44166;DHT22;30476;53.468;9.826;2023-02-15T16:19:24;11.20;99.90
44166;DHT22;30476;53.468;9.826;2023-02-15T16:21:52;11.00;99.90
44166;DHT22;30476;53.468;9.826;2023-02-15T16:24:26;10.90;99.90
44166;DHT22;30476;53.468;9.826;2023-02-15T16:27:11;10.80;99.90
44166;DHT22;30476;53.468;9.826;2023-02-15T16:29:38;10.70;99.90
44166;DHT22;30476;53.468;9.826;2023-02-15T16:32:18;10.50;99.90
44166;DHT22;30476;53.468;9.826;2023-02-15T16:35:02;10.40;99.90
44166;DHT22;30476;53.468;9.826;2023-02-15T16:37:33;10.30;99.90
44166;DHT22;30476;53.468;9.826;2023-02-15T16:39:59;10.20;99.90
44166;DHT22;30476;53.468;9.826;2023-02-15T16:42:25;10.10;99.90
44166;DHT22;30476;53.468;9.826;2023-02-15T16:44:55;10.00;99.90
44166;DHT22;30476;53.468;9.826;2023-02-15T16:47:26;9.90;99.90
44166;DHT22;30476;53.468;9.826;2023-02-15T16:49:56;9.80;99.90
44166;DHT22;30476;53.468;9.826;2023-02-15T16:52:25;9.70;99.90
44166;DHT22;30476;53.468;9.826;2023-02-15T16:55:01;9.60;99.90
44166;DHT22;30476;53.468;9.826;2023-02-15T16:57:32;9.60;99.90
44166;DHT22;30476;53.468;9.826;2023-02-15T17:00:07;9.50;99.90
44166;DHT22;30476;53.468;9.826;2023-02-15T17:02:34;9.50;99.90
44166;DHT22;30476;53.468;9.826;2023-02-15T17:05:11;9.40;99.90
44166;DHT22;30476;53.468;9.826;2023-02-15T17:07:48;9.30;99.90
44166;DHT22;30476;53.468;9.826;2023-02-15T17:10:30;9.20;99.90
44166;DHT22;30476;53.468;9.826;2023-02-15T17:13:01;9.10;99.90
44166;DHT22;30476;53.468;9.826;2023-02-15T17:15:32;9.10;99.90
44166;DHT22;30476;53.468;9.826;2023-02-15T17:18:15;9.00;99.90
44166;DHT22;30476;53.468;9.826;2023-02-15T17:20:43;8.90;99.90
44166;DHT22;30476;53.468;9.826;2023-02-15T17:23:32;8.80;99.90
44166;DHT22;30476;53.468;9.826;2023-02-15T17:26:00;8.80;99.90
44166;DHT22;30476;53.468;9.826;2023-02-15T17:28:31;8.70;99.90
44166;DHT22;30476;53.468;9.826;2023-02-15T17:30:58;8.60;99.90
44166;DHT22;30476;53.468;9.826;2023-02-15T17:33:28;8.50;99.90
44166;DHT22;30476;53.468;9.826;2023-02-15T17:36:11;8.40;99.90
44166;DHT22;30476;53.468;9.826;2023-02-15T17:38:40;8.30;99.90
44166;DHT22;30476;53.468;9.826;2023-02-15T17:41:06;8.20;99.90
44166;DHT22;30476;53.468;9.826;2023-02-15T17:43:32;8.20;99.90
44166;DHT22;30476;53.468;9.826;2023-02-15T17:45:58;8.10;99.90
44166;DHT22;30476;53.468;9.826;2023-02-15T17:48:30;8.00;99.90
44166;DHT22;30476;53.468;9.826;2023-02-15T17:51:01;8.00;99.90
44166;DHT22;30476;53.468;9.826;2023-02-15T17:53:28;7.90;99.90
44166;DHT22;30476;53.468;9.826;2023-02-15T17:55:53;7.80;99.90
44166;DHT22;30476;53.468;9.826;2023-02-15T17:58:20;7.70;99.90
44166;DHT22;30476;53.468;9.826;2023-02-15T18:00:54;7.70;99.90
44166;DHT22;30476;53.468;9.826;2023-02-15T18:03:43;7.60;99.90
44166;DHT22;30476;53.468;9.826;2023-02-15T18:06:29;7.50;99.90
44166;DHT22;30476;53.468;9.826;2023-02-15T18:09:15;7.50;99.90
44166;DHT22;30476;53.468;9.826;2023-02-15T18:12:00;7.40;99.90
44166;DHT22;30476;53.468;9.826;2023-02-15T18:14:26;7.40;99.90
44166;DHT22;30476;53.468;9.826;2023-02-15T18:16:53;7.30;99.90
44166;DHT22;30476;53.468;9.826;2023-02-15T18:19:24;7.20;99.90
44166;DHT22;30476;53.468;9.826;2023-02-15T18:21:51;7.10;99.90
44166;DHT22;30476;53.468;9.826;2023-02-15T18:24:23;7.00;99.90
44166;DHT22;30476;53.468;9.826;2023-02-15T18:26:50;6.90;99.90
44166;DHT22;30476;53.468;9.826;2023-02-15T18:29:16;6.90;99.90
44166;DHT22;30476;53.468;9.826;2023-02-15T18:31:43;6.80;99.90